Aérodrome :
LOGIN :

S'inscrire | Disclaimer

   EN    FR    IT 

 










Légende :    VFR   VFR Marginal   IFR   IFR Intensif   IFR Très Intensif
Visi : 
Plafond : 
>= 8 km
>= 3000ft
5 à 8 km
1000 à 3000 ft
1500m à 5 km
500 à 1000 ft
800 à 1500m
200 à 500 ft
< 800m
< 200 ft
Symboles :   Orages  Brouillard  Fortes neiges  Fortes précipitations  Vent > 20 kt
SIGMETs :   Divers  Orages  Givrage  Turbulence  Onde Orograph.  Cendres Volcan.






- Altitude de l'aérodrome : 1521 ft
- Code IATA : NCY


LFLP - Annecy

DERNIER METAR :
  • 090230Z AUTO 05004KT CAVOK 18/14 Q1020 NOSIG

METARs EXPIRÉS :
  • 090200Z AUTO 04005KT CAVOK 18/14 Q1020
  • 090130Z AUTO 05005KT CAVOK 18/15 Q1019
  • 090100Z AUTO 06005KT CAVOK 19/15 Q1019
  • 090030Z AUTO 03004KT CAVOK 19/15 Q1019
  • 090000Z AUTO 06006KT CAVOK 19/15 Q1019

TAF TAF LFLP
Valide du 09 à 03h jusqu'au 10 à 03h UTC


090200Z 0903/1003 VRB03KT CAVOK
PROB40
TEMPO 0912/0915 FEW100CB
PROB30
TEMPO 0920/0923 VRB15G30KT 2000 TSRA BKN090CB



MET'MAP, la Météo Aéronautique d'un coup d'oeil ! - Copyright ORBIFLY Décembre 2007 - Disclaimer

ORBIFLY MET'MAP TEAM :

Programmation & Développement : Alexandra Zaïnal
Sur une idée originale de : Baudouin d'Aumeries
Assistance à la programmation : Marc-Olivier Méhu
Soutien technique & logistique : Manuel Goepfert

Contact : metmap@orbifly.com




SOURCES & CREDITS :

   NOAA